Time;durP1;ratioP1;P1;durP2;ratioP2;P2;SDS_P1;SDS_P2;PMS_P1;PMS_P2;Temp;Humidity;BMP_temperature;BMP_pressure;BME280_temperature;BME280_humidity;BME280_pressure;Samples;Min_cycle;Max_cycle;Signal;HPM_P1;HPM_P2
2021/06/15 00:00:20;;;;;;;1.77;1.15;;;;;;;14.80;64.20;99903.16;5110882;28;20038;-23
2021/06/15 00:02:46;;;;;;;1.85;1.42;;;;;;;15.10;63.66;99917.19;5111040;28;20031;-23
2021/06/15 00:05:12;;;;;;;4.03;1.60;;;;;;;14.93;64.20;99906.53;5111050;28;20027;-23
2021/06/15 00:07:38;;;;;;;4.47;1.50;;;;;;;14.93;65.04;99895.78;5093026;28;20062;-23
2021/06/15 00:10:09;;;;;;;1.50;1.30;;;;;;;15.10;63.67;99917.19;5110799;28;20028;-23
2021/06/15 00:12:35;;;;;;;3.55;1.30;;;;;;;14.88;64.39;99909.97;5110797;28;20110;-23
2021/06/15 00:15:00;;;;;;;5.78;1.60;;;;;;;14.80;64.50;99907.75;5110592;28;20118;-24
2021/06/15 00:17:26;;;;;;;2.88;1.92;;;;;;;14.78;65.50;99910.66;5110841;28;20040;-23
2021/06/15 00:19:51;;;;;;;5.90;1.58;;;;;;;15.00;64.98;99915.22;5092450;28;20031;-23
2021/06/15 00:22:17;;;;;;;4.93;1.80;;;;;;;15.20;64.23;99907.38;5110446;28;20032;-23
2021/06/15 00:24:42;;;;;;;9.43;1.90;;;;;;;14.85;64.99;99910.47;5111217;28;20031;-23
2021/06/15 00:27:08;;;;;;;4.82;1.60;;;;;;;14.46;66.79;99913.19;5110481;28;20108;-23
2021/06/15 00:29:33;;;;;;;4.30;1.80;;;;;;;14.29;67.59;99910.53;5092299;28;20028;-23
2021/06/15 00:31:59;;;;;;;4.65;1.60;;;;;;;14.06;68.69;99909.69;5110593;28;20483;-23
2021/06/15 00:34:25;;;;;;;8.52;1.85;;;;;;;14.10;68.57;99904.66;5110081;28;20111;-23
2021/06/15 00:36:50;;;;;;;8.45;2.20;;;;;;;14.13;68.73;99909.50;5110374;28;20489;-23
2021/06/15 00:39:16;;;;;;;4.93;2.20;;;;;;;14.39;66.72;99905.31;5110753;28;20034;-23
2021/06/15 00:41:41;;;;;;;8.40;2.10;;;;;;;14.45;66.67;99911.56;5110554;28;20032;-23
2021/06/15 00:44:10;;;;;;;7.85;1.80;;;;;;;14.35;67.00;99911.44;5110217;28;20034;-23
2021/06/15 00:46:35;;;;;;;6.15;2.00;;;;;;;14.43;67.13;99892.22;5091829;28;20390;-23
2021/06/15 00:49:01;;;;;;;2.47;2.00;;;;;;;14.76;66.56;99904.75;5109821;28;20028;-23
2021/06/15 00:51:26;;;;;;;4.85;1.83;;;;;;;14.86;65.61;99907.53;5110191;28;20028;-23
2021/06/15 00:53:52;;;;;;;7.40;2.08;;;;;;;14.44;67.44;99916.13;5110350;28;20092;-23
2021/06/15 00:56:17;;;;;;;5.63;1.83;;;;;;;14.52;67.84;99911.38;5109902;28;20036;-23
2021/06/15 00:58:44;;;;;;;3.30;1.50;;;;;;;14.37;67.57;99907.44;5110369;28;20839;-23
2021/06/15 01:01:10;;;;;;;4.35;1.50;;;;;;;14.39;67.33;99908.00;5110136;28;20042;-23
2021/06/15 01:03:35;;;;;;;4.07;1.80;;;;;;;14.30;68.55;99914.03;5110001;28;20028;-23
2021/06/15 01:06:03;;;;;;;4.13;1.70;;;;;;;14.27;67.58;99904.63;5092118;28;20024;-23
2021/06/15 01:08:43;;;;;;;3.85;2.13;;;;;;;14.53;67.74;99907.66;5092230;28;20035;-23
2021/06/15 01:11:41;;;;;;;6.15;2.00;;;;;;;14.56;67.50;99920.59;5109662;28;20119;-23
2021/06/15 01:14:45;;;;;;;6.50;2.17;;;;;;;14.41;68.46;99926.53;5100202;28;20040;-23
2021/06/15 01:17:26;;;;;;;4.68;1.92;;;;;;;14.26;68.97;99929.78;5108497;28;20066;-23
2021/06/15 01:20:33;;;;;;;5.57;2.10;;;;;;;14.42;68.43;99915.53;5109528;28;20031;-23
2021/06/15 01:23:34;;;;;;;4.03;2.30;;;;;;;14.84;68.37;99906.97;5074364;28;20047;-23
2021/06/15 01:26:32;;;;;;;4.80;1.88;;;;;;;15.14;65.64;99910.25;5094033;28;20082;-23
2021/06/15 01:29:00;;;;;;;3.15;2.00;;;;;;;15.23;64.32;99917.59;5109514;28;20023;-23
2021/06/15 01:31:25;;;;;;;4.57;1.80;;;;;;;15.26;64.40;99925.19;5074494;28;20055;-23
2021/06/15 01:33:55;;;;;;;5.93;1.88;;;;;;;15.03;64.04;99922.75;5109242;28;20060;-23
2021/06/15 01:36:23;;;;;;;4.80;1.95;;;;;;;14.89;65.23;99918.84;5108886;28;20395;-23
2021/06/15 01:38:53;;;;;;;3.92;2.03;;;;;;;14.93;65.35;99917.28;5091257;28;20038;-23
2021/06/15 01:41:30;;;;;;;7.25;1.80;;;;;;;14.74;64.85;99903.38;5090789;28;20130;-23
2021/06/15 01:44:06;;;;;;;4.85;1.90;;;;;;;14.62;65.24;99906.16;5109300;28;20028;-23
2021/06/15 01:46:33;;;;;;;4.25;1.80;;;;;;;14.42;65.48;99914.72;5091451;28;20028;-23
2021/06/15 01:49:04;;;;;;;4.43;2.40;;;;;;;14.26;65.92;99921.75;5091147;28;20031;-23
2021/06/15 01:51:30;;;;;;;3.47;2.00;;;;;;;14.14;66.41;99913.81;5090692;28;20031;-23
2021/06/15 01:54:10;;;;;;;3.97;1.95;;;;;;;13.74;67.00;99920.16;5090656;28;20027;-23
2021/06/15 01:56:38;;;;;;;5.85;2.35;;;;;;;13.81;66.86;99915.47;5092629;28;20024;-23
2021/06/15 01:59:04;;;;;;;7.00;2.22;;;;;;;13.79;67.33;99914.06;5108408;28;20031;-23
2021/06/15 02:01:30;;;;;;;4.03;2.35;;;;;;;14.46;65.52;99932.78;5073321;28;20039;-23
2021/06/15 02:03:55;;;;;;;3.78;2.10;;;;;;;14.61;65.71;99928.72;5073545;28;20089;-23
2021/06/15 02:06:22;;;;;;;3.70;2.10;;;;;;;14.41;66.40;99915.81;5073250;28;20483;-23
2021/06/15 02:08:50;;;;;;;2.50;2.13;;;;;;;14.31;65.54;99927.19;5090602;28;20019;-23
2021/06/15 02:11:17;;;;;;;4.63;2.55;;;;;;;14.31;65.13;99923.72;5108466;28;20032;-23
2021/06/15 02:13:46;;;;;;;5.50;2.20;;;;;;;14.32;65.08;99912.72;5090314;28;20942;-23
2021/06/15 02:16:13;;;;;;;5.10;2.47;;;;;;;14.21;65.11;99921.69;5108133;28;20027;-23
2021/06/15 02:18:38;;;;;;;4.60;2.40;;;;;;;14.23;65.29;99915.00;5090326;28;20142;-23
2021/06/15 02:21:07;;;;;;;4.22;2.60;;;;;;;14.23;65.09;99909.66;5073313;28;20554;-23
2021/06/15 02:23:33;;;;;;;5.60;2.50;;;;;;;14.27;64.90;99913.47;5073894;28;20032;-23
2021/06/15 02:26:00;;;;;;;3.97;2.45;;;;;;;14.05;65.68;99924.13;5073094;28;20423;-23
2021/06/15 02:28:26;;;;;;;3.97;2.33;;;;;;;13.83;65.73;99904.50;5073439;28;20035;-23
2021/06/15 02:30:52;;;;;;;4.20;2.30;;;;;;;13.55;67.06;99914.22;5072969;28;20126;-23
2021/06/15 02:33:23;;;;;;;5.15;1.95;;;;;;;13.80;67.09;99915.72;5108280;28;20031;-23
2021/06/15 02:35:51;;;;;;;4.18;2.40;;;;;;;13.87;67.02;99900.25;5090051;28;20027;-23
2021/06/15 02:38:30;;;;;;;6.18;2.70;;;;;;;14.07;66.27;99908.63;5108007;28;20441;-23
2021/06/15 02:40:59;;;;;;;5.97;2.55;;;;;;;13.95;65.81;99891.81;5090569;28;20040;-23
2021/06/15 02:43:24;;;;;;;5.90;2.58;;;;;;;14.15;66.26;99909.28;5072717;28;20038;-23
2021/06/15 02:45:50;;;;;;;4.07;2.05;;;;;;;14.46;65.30;99921.22;5073283;28;20720;-23
2021/06/15 02:48:16;;;;;;;5.35;2.45;;;;;;;14.50;65.51;99925.03;5107951;28;20063;-23
2021/06/15 02:50:41;;;;;;;4.60;2.50;;;;;;;14.49;64.91;99936.03;5107835;28;20062;-24
2021/06/15 02:53:14;;;;;;;6.85;2.47;;;;;;;14.31;66.08;99934.44;5089959;28;20067;-23
2021/06/15 02:55:41;;;;;;;6.85;3.00;;;;;;;14.36;66.63;99935.31;5073040;28;20016;-23
2021/06/15 02:58:06;;;;;;;5.13;3.20;;;;;;;14.35;67.05;99939.06;5089480;28;20494;-23
2021/06/15 03:00:33;;;;;;;9.80;2.92;;;;;;;14.50;66.74;99940.34;5108249;28;20495;-23
2021/06/15 03:02:58;;;;;;;5.10;2.78;;;;;;;14.41;67.21;99940.75;5107924;28;20797;-23
2021/06/15 03:05:24;;;;;;;5.03;2.75;;;;;;;14.40;66.14;99941.00;5107626;28;20027;-23
2021/06/15 03:07:50;;;;;;;5.38;2.83;;;;;;;14.50;66.55;99934.97;5107715;28;20031;-23
2021/06/15 03:10:16;;;;;;;5.35;2.53;;;;;;;14.15;66.99;99922.69;5107543;28;20032;-23
2021/06/15 03:13:06;;;;;;;11.18;2.95;;;;;;;14.51;66.46;99947.34;5107469;28;20031;-22
2021/06/15 03:15:52;;;;;;;5.85;2.50;;;;;;;14.66;65.94;99953.72;5089385;28;20027;-23
2021/06/15 03:18:51;;;;;;;8.52;2.97;;;;;;;14.46;66.49;99958.78;5089058;28;20051;-22
2021/06/15 03:21:19;;;;;;;5.47;2.60;;;;;;;14.15;67.94;99933.41;5084851;28;20112;-22
2021/06/15 03:23:51;;;;;;;6.32;2.70;;;;;;;14.24;68.75;99974.81;5107462;28;20438;-22
2021/06/15 03:26:25;;;;;;;6.00;2.63;;;;;;;14.21;68.75;99964.59;5089277;28;20039;-22
2021/06/15 03:28:56;;;;;;;8.52;2.60;;;;;;;14.19;69.18;99966.72;5089273;28;20030;-23
2021/06/15 03:31:21;;;;;;;9.50;3.20;;;;;;;13.91;70.46;99938.94;5107344;28;20035;-22
2021/06/15 03:33:48;;;;;;;4.68;2.60;;;;;;;14.13;70.39;99973.88;5089668;28;20031;-22
2021/06/15 03:36:14;;;;;;;5.35;2.63;;;;;;;14.11;69.44;99953.72;5089133;28;20024;-23
2021/06/15 03:38:39;;;;;;;7.07;2.95;;;;;;;14.31;69.66;99969.31;5072531;28;20042;-23
2021/06/15 03:41:05;;;;;;;5.65;2.67;;;;;;;14.29;68.67;99966.06;5072522;28;20031;-23
2021/06/15 03:43:31;;;;;;;5.65;2.63;;;;;;;14.12;69.36;99955.34;5089353;28;20542;-22
2021/06/15 03:46:07;;;;;;;5.57;2.88;;;;;;;14.34;68.89;99966.94;5089099;28;20020;-23
2021/06/15 03:48:35;;;;;;;5.60;2.47;;;;;;;14.46;68.04;99962.31;5090852;28;20024;-23
2021/06/15 03:51:00;;;;;;;5.85;2.78;;;;;;;14.51;67.93;99966.94;5089400;28;20024;-22
2021/06/15 03:53:29;;;;;;;7.05;3.15;;;;;;;14.40;68.75;99968.63;5088892;28;20031;-23
2021/06/15 03:55:54;;;;;;;;;;;;;;;14.22;69.13;99963.53;5073323;28;20028;-22
2021/06/15 03:58:20;;;;;;;5.63;2.70;;;;;;;14.36;68.34;99956.75;5088996;28;20267;-22
2021/06/15 04:00:48;;;;;;;3.50;2.42;;;;;;;14.22;68.91;99955.50;5107149;28;20042;-22
2021/06/15 04:03:13;;;;;;;;;;;;;;;14.38;69.40;99970.75;5089817;28;20032;-23
2021/06/15 04:05:39;;;;;;;5.82;3.10;;;;;;;14.44;67.26;99964.44;5089121;28;20376;-22
2021/06/15 04:08:06;;;;;;;5.13;3.20;;;;;;;14.40;67.33;99973.19;5071875;28;20028;-23
2021/06/15 04:10:31;;;;;;;6.35;2.92;;;;;;;14.26;68.11;99961.97;5089138;28;20097;-23
2021/06/15 04:12:59;;;;;;;5.72;3.10;;;;;;;14.49;67.71;99978.97;5107015;28;20032;-22
2021/06/15 04:15:25;;;;;;;4.07;2.70;;;;;;;14.39;67.83;99977.75;5072159;28;20028;-25
2021/06/15 04:17:51;;;;;;;7.68;3.92;;;;;;;14.49;67.80;99981.66;5088348;28;20108;-24
2021/06/15 04:20:25;;;;;;;7.72;3.67;;;;;;;14.36;67.85;99978.22;5107055;28;20414;-23
2021/06/15 04:22:51;;;;;;;7.15;3.10;;;;;;;14.27;68.99;99985.09;5088877;28;20039;-24
2021/06/15 04:25:21;;;;;;;8.18;3.05;;;;;;;14.26;68.69;99986.97;5075211;28;20053;-24
2021/06/15 04:27:46;;;;;;;8.60;3.20;;;;;;;14.40;68.76;99995.47;5110445;28;20027;-24
2021/06/15 04:30:13;;;;;;;6.32;3.25;;;;;;;14.39;69.04;99985.81;5091711;28;20028;-25
2021/06/15 04:32:58;;;;;;;5.25;3.60;;;;;;;14.12;69.80;99976.78;5110750;28;20035;-25
2021/06/15 04:35:43;;;;;;;5.68;3.13;;;;;;;14.21;69.15;99994.09;5110537;28;20096;-24
2021/06/15 04:38:12;;;;;;;4.97;3.03;;;;;;;14.24;68.43;99985.56;5091171;28;20047;-25
2021/06/15 04:40:40;;;;;;;7.25;3.28;;;;;;;14.53;68.66;99999.69;5092817;28;20038;-25
2021/06/15 04:43:21;;;;;;;;;;;;;;;14.63;68.30;99993.69;5092867;28;20031;-25
2021/06/15 04:45:46;;;;;;;8.10;3.50;;;;;;;14.51;68.32;99980.34;5109718;28;19911;-25
2021/06/15 04:48:22;;;;;;;6.63;3.40;;;;;;;14.74;68.06;99995.44;5090917;28;20027;-25
2021/06/15 04:50:48;;;;;;;6.32;3.15;;;;;;;14.59;68.25;99974.59;5092732;28;20044;-25
2021/06/15 04:53:13;;;;;;;4.93;3.00;;;;;;;14.80;67.46;99993.66;5092127;28;20055;-25
2021/06/15 04:55:39;;;;;;;5.53;3.50;;;;;;;14.71;67.64;99969.09;5091659;28;20536;-25
2021/06/15 04:58:08;;;;;;;4.57;2.90;;;;;;;14.89;66.95;99985.97;5074980;28;20023;-25
2021/06/15 05:00:34;;;;;;;6.35;3.20;;;;;;;15.13;66.21;99992.72;5110045;28;20383;-25
2021/06/15 05:02:59;;;;;;;5.38;3.28;;;;;;;15.05;66.09;100001.19;5091920;28;20089;-25
2021/06/15 05:05:25;;;;;;;5.82;3.05;;;;;;;14.95;65.98;99984.97;5091958;28;20137;-25
2021/06/15 05:07:59;;;;;;;5.80;3.75;;;;;;;14.92;66.09;100012.34;5075023;28;20062;-25
2021/06/15 05:10:24;;;;;;;4.30;2.97;;;;;;;14.88;66.58;100011.19;5109452;28;20498;-25
2021/06/15 05:12:52;;;;;;;5.20;3.28;;;;;;;14.96;67.20;100008.09;5109670;28;20027;-25
2021/06/15 05:15:18;;;;;;;4.22;3.13;;;;;;;15.15;66.26;100004.00;5109735;28;20130;-25
2021/06/15 05:17:48;;;;;;;4.30;3.33;;;;;;;15.21;66.38;100010.25;5088063;28;20943;-25
2021/06/15 05:20:14;;;;;;;6.38;3.20;;;;;;;15.26;66.18;100008.47;5087651;28;20056;-24
2021/06/15 05:22:47;;;;;;;6.90;3.25;;;;;;;15.34;66.09;99990.25;5087954;28;20084;-24
2021/06/15 05:25:15;;;;;;;4.60;3.17;;;;;;;15.21;67.07;100004.91;5088966;28;20020;-24
2021/06/15 05:27:40;;;;;;;;;;;;;;;15.57;65.08;100014.16;5089529;28;20028;-24
2021/06/15 05:30:06;;;;;;;4.07;3.10;;;;;;;15.71;65.19;100024.50;5088650;28;19912;-23
2021/06/15 05:32:32;;;;;;;5.13;3.17;;;;;;;16.09;64.25;100004.72;5088876;28;20055;-24
2021/06/15 05:34:58;;;;;;;5.90;3.20;;;;;;;16.35;64.10;100019.19;5088938;28;20038;-24
2021/06/15 05:37:24;;;;;;;7.00;3.03;;;;;;;16.12;64.26;100019.53;5087630;28;20031;-25
2021/06/15 05:39:49;;;;;;;5.60;2.97;;;;;;;16.24;64.42;100012.09;5087172;28;20096;-25
2021/06/15 05:42:15;;;;;;;5.20;2.97;;;;;;;16.13;64.31;100021.16;5088903;28;20048;-25
2021/06/15 05:44:41;;;;;;;7.32;3.20;;;;;;;16.24;63.60;100021.00;5088852;28;20135;-25
2021/06/15 05:47:07;;;;;;;6.88;4.22;;;;;;;16.45;63.53;100027.31;5088993;28;20027;-25
2021/06/15 05:49:32;;;;;;;7.32;5.53;;;;;;;16.64;63.45;100011.56;5088702;28;20064;-24
2021/06/15 05:52:00;;;;;;;7.93;4.55;;;;;;;16.69;63.22;100021.53;5089174;28;20115;-25
2021/06/15 05:54:26;;;;;;;7.85;4.45;;;;;;;16.90;62.80;100013.59;5088568;28;20036;-25
2021/06/15 05:56:51;;;;;;;7.68;5.07;;;;;;;16.95;62.24;99995.59;5088645;28;20798;-22
2021/06/15 05:59:17;;;;;;;7.53;3.95;;;;;;;17.12;62.45;100026.91;5088289;28;20032;-23
2021/06/15 06:01:42;;;;;;;6.18;3.05;;;;;;;17.32;61.69;100026.19;5088604;28;20115;-23
2021/06/15 06:04:10;;;;;;;5.50;3.53;;;;;;;17.42;61.70;100028.91;5088540;28;20060;-23
2021/06/15 06:09:20;;;;;;;6.72;3.20;;;;;;;17.17;61.59;100014.25;5088423;28;20078;-23
2021/06/15 06:11:46;;;;;;;7.90;3.40;;;;;;;17.07;60.88;100030.41;5088235;28;20056;-23
2021/06/15 06:14:12;;;;;;;7.75;3.53;;;;;;;17.00;61.99;100030.63;5088230;28;20038;-23
2021/06/15 06:16:37;;;;;;;4.63;3.03;;;;;;;17.03;61.30;100029.28;5089382;28;20085;-23
2021/06/15 06:19:03;;;;;;;4.70;2.60;;;;;;;16.47;62.27;100017.09;5090524;28;20015;-23
2021/06/15 06:21:32;;;;;;;5.88;3.15;;;;;;;16.53;62.69;100020.66;5108435;28;20035;-22
2021/06/15 06:23:58;;;;;;;8.00;3.63;;;;;;;16.73;61.60;100019.94;5108299;28;20027;-23
2021/06/15 06:26:23;;;;;;;8.00;3.20;;;;;;;16.91;60.92;100026.81;5089625;28;20059;-23
2021/06/15 06:28:49;;;;;;;6.32;2.88;;;;;;;17.19;61.35;100022.91;5108475;28;20157;-23
2021/06/15 06:31:14;;;;;;;5.03;2.60;;;;;;;17.11;61.08;100025.28;5108525;28;20034;-23
2021/06/15 06:33:40;;;;;;;7.22;3.67;;;;;;;17.02;61.33;100016.88;5107826;28;20114;-22
2021/06/15 06:36:06;;;;;;;6.32;3.08;;;;;;;16.97;60.21;100019.56;5106905;28;20114;-23
2021/06/15 06:38:31;;;;;;;6.63;3.10;;;;;;;17.16;60.97;100020.75;5107666;28;20028;-23
2021/06/15 06:40:57;;;;;;;4.88;3.17;;;;;;;17.24;60.60;100014.84;5108125;28;20028;-22
2021/06/15 06:43:22;;;;;;;6.82;3.40;;;;;;;17.60;60.02;100017.63;5107934;28;20495;-22
2021/06/15 06:45:48;;;;;;;5.57;3.22;;;;;;;17.15;59.92;100016.41;5107304;28;20034;-22
2021/06/15 06:48:13;;;;;;;4.35;3.13;;;;;;;16.94;60.83;100003.91;5107615;28;20039;-22
2021/06/15 06:50:39;;;;;;;4.47;2.80;;;;;;;16.97;59.70;100016.88;5108166;28;20108;-23
2021/06/15 06:53:04;;;;;;;7.18;3.67;;;;;;;17.06;61.02;100007.19;5107708;28;20532;-22
2021/06/15 06:55:30;;;;;;;6.40;2.58;;;;;;;17.16;60.72;100001.06;5107143;28;20469;-23
2021/06/15 06:57:56;;;;;;;5.22;3.15;;;;;;;17.05;61.00;99995.63;5107629;28;20028;-23
2021/06/15 07:00:21;;;;;;;6.22;3.33;;;;;;;17.23;60.10;99997.03;5085848;28;20147;-23
2021/06/15 07:02:50;;;;;;;9.63;4.00;;;;;;;17.45;59.68;99998.72;5087349;28;20040;-23
2021/06/15 07:05:16;;;;;;;4.95;2.88;;;;;;;17.37;59.13;100002.75;5086896;28;20085;-23
2021/06/15 07:07:41;;;;;;;4.78;2.67;;;;;;;17.26;60.04;99993.84;5087113;28;20028;-23
2021/06/15 07:10:07;;;;;;;5.60;2.70;;;;;;;17.61;59.74;99996.84;5086789;28;20079;-23
2021/06/15 07:12:33;;;;;;;4.65;2.88;;;;;;;16.73;60.03;99981.44;5087407;28;20403;-23
2021/06/15 07:14:58;;;;;;;6.43;2.72;;;;;;;16.56;62.52;99995.09;5087190;28;20047;-22
2021/06/15 07:17:24;;;;;;;6.43;2.53;;;;;;;16.53;61.04;99995.59;5086521;28;20087;-22
2021/06/15 07:19:49;;;;;;;7.22;2.97;;;;;;;16.63;61.63;99993.78;5086912;28;20039;-23
2021/06/15 07:22:16;;;;;;;4.45;2.90;;;;;;;16.96;61.59;99991.00;5086467;28;20908;-22
2021/06/15 07:24:42;;;;;;;6.57;3.03;;;;;;;17.39;60.24;99997.09;5086878;28;20059;-22
2021/06/15 07:27:07;;;;;;;6.13;2.60;;;;;;;17.42;60.04;99983.06;5086882;28;20129;-23
2021/06/15 07:29:33;;;;;;;4.85;2.80;;;;;;;17.58;59.28;99989.31;5087051;28;20039;-22
2021/06/15 07:31:58;;;;;;;5.95;3.00;;;;;;;17.92;59.43;99986.97;5087267;28;20032;-23
2021/06/15 07:34:24;;;;;;;5.03;2.70;;;;;;;17.92;57.68;99986.97;5086589;28;20400;-23
2021/06/15 07:36:50;;;;;;;4.18;2.85;;;;;;;18.11;58.52;99979.13;5086859;28;20032;-22
2021/06/15 07:39:15;;;;;;;3.55;2.75;;;;;;;18.60;57.42;99983.09;5086954;28;20032;-23
2021/06/15 07:41:41;;;;;;;5.43;3.15;;;;;;;18.91;57.18;99978.44;5087003;28;20043;-22
2021/06/15 07:44:07;;;;;;;4.07;2.78;;;;;;;19.08;55.88;99980.78;5086678;28;20115;-23
2021/06/15 07:46:33;;;;;;;6.38;2.80;;;;;;;18.94;56.02;99985.16;5086204;28;20032;-23
2021/06/15 07:48:58;;;;;;;5.97;2.40;;;;;;;18.94;55.17;99955.44;5086971;28;20028;-22
2021/06/15 07:51:24;;;;;;;6.97;2.80;;;;;;;19.01;55.82;99975.69;5086905;28;20070;-23
2021/06/15 07:53:49;;;;;;;3.60;2.40;;;;;;;19.39;54.99;99959.00;5086936;28;20058;-23
2021/06/15 07:56:15;;;;;;;5.78;2.63;;;;;;;18.96;55.79;99956.81;5086517;28;20088;-23
2021/06/15 07:58:41;;;;;;;4.93;2.25;;;;;;;19.18;54.48;99956.41;5088449;28;20470;-23
2021/06/15 08:01:06;;;;;;;4.75;3.00;;;;;;;18.84;55.13;99940.09;5090642;28;20955;-23
2021/06/15 08:03:32;;;;;;;4.55;2.50;;;;;;;18.88;56.29;99954.69;5089996;28;20030;-22
2021/06/15 08:05:57;;;;;;;7.05;3.00;;;;;;;18.90;54.56;99946.28;5090384;28;20024;-22
2021/06/15 08:08:23;;;;;;;6.32;3.00;;;;;;;19.00;54.49;99943.53;5089827;28;20063;-23
2021/06/15 08:10:48;;;;;;;5.10;2.38;;;;;;;19.37;53.69;99945.78;5090558;28;20107;-22
2021/06/15 08:13:14;;;;;;;5.68;2.30;;;;;;;19.86;53.08;99941.41;5090463;28;20060;-23
2021/06/15 08:15:40;;;;;;;4.28;2.13;;;;;;;19.41;52.49;99925.19;5090085;28;20071;-22
2021/06/15 08:18:05;;;;;;;7.55;2.88;;;;;;;19.50;52.33;99919.97;5089589;28;20052;-22
2021/06/15 08:20:31;;;;;;;4.93;2.35;;;;;;;19.42;51.55;99944.94;5090201;28;20089;-22
2021/06/15 08:22:57;;;;;;;4.55;2.20;;;;;;;19.20;50.48;99927.19;5090024;28;20214;-22
2021/06/15 08:25:22;;;;;;;7.10;2.60;;;;;;;19.49;51.56;99942.69;5090295;28;20066;-23
2021/06/15 08:27:49;;;;;;;4.65;2.60;;;;;;;19.43;52.44;99931.13;5090368;28;20411;-23
2021/06/15 08:30:15;;;;;;;5.70;2.30;;;;;;;19.89;49.54;99931.88;5089740;28;20028;-23
2021/06/15 08:32:40;;;;;;;3.30;2.05;;;;;;;19.90;50.79;99926.19;5090145;28;20036;-23
2021/06/15 08:35:06;;;;;;;5.82;2.45;;;;;;;20.10;48.81;99921.69;5089943;28;20051;-22
2021/06/15 08:37:34;;;;;;;4.22;2.20;;;;;;;19.87;50.19;99932.16;5089987;28;20107;-23
2021/06/15 08:39:59;;;;;;;6.03;2.40;;;;;;;20.02;49.50;99921.22;5090069;28;20035;-23
2021/06/15 08:42:25;;;;;;;4.03;2.28;;;;;;;20.17;48.47;99922.16;5071878;28;20396;-23
2021/06/15 08:44:51;;;;;;;6.13;2.45;;;;;;;20.13;49.59;99918.41;5089902;28;20826;-23
2021/06/15 08:47:17;;;;;;;4.55;2.10;;;;;;;19.91;49.33;99925.09;5071706;28;20024;-23
2021/06/15 08:49:43;;;;;;;4.10;2.10;;;;;;;19.95;50.16;99934.25;5089827;28;20039;-23
2021/06/15 08:52:09;;;;;;;4.07;2.22;;;;;;;20.56;50.74;99929.31;5071294;28;20043;-23
2021/06/15 08:54:35;;;;;;;4.07;1.83;;;;;;;20.52;48.45;99933.72;5089580;28;20403;-23
2021/06/15 08:57:00;;;;;;;4.97;1.90;;;;;;;20.62;48.05;99936.31;5071571;28;20085;-23
2021/06/15 08:59:29;;;;;;;4.10;2.30;;;;;;;20.55;48.49;99925.78;5089302;28;20035;-23
2021/06/15 09:01:59;;;;;;;3.75;2.10;;;;;;;20.67;48.91;99928.91;5089413;28;20035;-23
2021/06/15 09:04:24;;;;;;;3.60;2.30;;;;;;;20.33;48.21;99929.03;5089044;28;20034;-23
2021/06/15 09:06:50;;;;;;;3.53;2.20;;;;;;;20.31;49.80;99920.38;5088973;28;20032;-23
2021/06/15 09:09:16;;;;;;;4.38;2.25;;;;;;;20.73;48.41;99915.31;5088787;28;20103;-23
2021/06/15 09:12:00;;;;;;;3.75;1.77;;;;;;;20.54;47.99;99921.47;5070841;28;20031;-23
2021/06/15 09:14:38;;;;;;;4.35;2.15;;;;;;;20.53;49.44;99916.34;5088687;28;20111;-23
2021/06/15 09:17:04;;;;;;;4.00;2.15;;;;;;;20.24;48.48;99909.06;5089100;28;20202;-23
2021/06/15 09:19:35;;;;;;;3.72;2.35;;;;;;;20.58;47.99;99924.44;5089510;28;20078;-22
2021/06/15 09:22:02;;;;;;;7.57;2.53;;;;;;;20.31;47.62;99928.50;5071787;28;20028;-23
2021/06/15 09:24:27;;;;;;;4.32;2.10;;;;;;;20.50;48.46;99927.78;5088638;28;20453;-23
2021/06/15 09:27:05;;;;;;;2.88;1.92;;;;;;;20.54;47.55;99924.19;5088959;28;20036;-25
2021/06/15 09:29:45;;;;;;;3.97;2.00;;;;;;;20.74;47.72;99925.88;5088946;28;20487;-23
2021/06/15 09:32:20;;;;;;;4.95;2.60;;;;;;;20.58;46.92;99919.00;5089095;28;20205;-23
2021/06/15 09:34:53;;;;;;;6.57;3.58;;;;;;;20.73;46.09;99916.13;5088887;28;20119;-23
2021/06/15 09:37:31;;;;;;;3.80;2.53;;;;;;;21.01;46.64;99927.97;5088709;28;20051;-23
2021/06/15 09:39:56;;;;;;;3.45;1.83;;;;;;;20.61;46.17;99916.53;5088802;28;20074;-23
2021/06/15 09:42:22;;;;;;;5.10;2.10;;;;;;;20.69;47.41;99914.28;5088633;28;20044;-23
2021/06/15 09:44:48;;;;;;;2.92;1.90;;;;;;;20.77;46.39;99917.16;5088561;28;20024;-23
2021/06/15 09:47:13;;;;;;;3.03;1.90;;;;;;;20.87;46.49;99925.16;5070671;28;20043;-22
2021/06/15 09:49:43;;;;;;;3.20;1.80;;;;;;;20.45;45.53;99902.34;5088007;28;20039;-23
2021/06/15 09:52:32;;;;;;;2.97;2.00;;;;;;;20.46;47.48;99901.25;5088332;28;20032;-23
2021/06/15 09:54:59;;;;;;;3.42;1.90;;;;;;;20.79;45.74;99911.47;5088311;28;20027;-23
2021/06/15 09:57:25;;;;;;;3.95;2.05;;;;;;;20.64;46.56;99913.25;5088130;28;20043;-23
2021/06/15 10:00:12;;;;;;;2.45;2.13;;;;;;;20.93;46.52;99914.25;5088368;28;20525;-23
2021/06/15 10:02:58;;;;;;;4.90;2.42;;;;;;;21.00;48.05;99914.69;5088235;28;20504;-23
2021/06/15 10:05:33;;;;;;;2.30;1.90;;;;;;;21.18;46.15;99921.22;5088050;28;20518;-23
2021/06/15 10:08:03;;;;;;;4.88;1.98;;;;;;;21.23;44.72;99919.25;5087807;28;20505;-23
2021/06/15 10:10:36;;;;;;;5.10;2.05;;;;;;;21.15;44.89;99908.28;5069695;28;20035;-23
2021/06/15 10:13:02;;;;;;;4.20;2.20;;;;;;;21.27;45.06;99895.09;5088076;28;20028;-22
2021/06/15 10:15:28;;;;;;;4.03;2.10;;;;;;;21.04;44.59;99883.19;5087604;28;20094;-23
2021/06/15 10:17:55;;;;;;;6.18;2.40;;;;;;;21.04;44.25;99910.31;5087805;28;20084;-23
2021/06/15 10:20:21;;;;;;;6.10;2.70;;;;;;;21.33;45.86;99914.78;5086976;28;20032;-23
2021/06/15 10:22:48;;;;;;;4.90;2.58;;;;;;;21.66;44.85;99902.91;5087617;28;20028;-23
2021/06/15 10:25:14;;;;;;;4.03;2.35;;;;;;;21.44;45.02;99902.72;5087429;28;20043;-22
2021/06/15 10:27:40;;;;;;;4.20;1.90;;;;;;;21.30;43.11;99912.66;5087608;28;20181;-22
2021/06/15 10:30:06;;;;;;;6.03;2.42;;;;;;;21.69;44.65;99903.41;5087419;28;20031;-23
2021/06/15 10:32:32;;;;;;;4.57;2.40;;;;;;;21.41;45.73;99900.53;5087638;28;20032;-23
2021/06/15 10:34:58;;;;;;;4.15;2.50;;;;;;;21.12;46.19;99906.94;5069556;28;20032;-23
2021/06/15 10:37:39;;;;;;;2.85;2.10;;;;;;;21.15;45.39;99903.66;5087074;28;20547;-22
2021/06/15 10:40:13;;;;;;;5.35;3.45;;;;;;;21.32;45.00;99902.31;5087630;28;20020;-23
2021/06/15 10:42:42;;;;;;;6.50;2.30;;;;;;;21.17;44.55;99881.66;5087441;28;20435;-23
2021/06/15 10:45:20;;;;;;;5.20;2.63;;;;;;;21.97;44.20;99899.66;5087746;28;20028;-23
2021/06/15 10:48:03;;;;;;;4.15;2.40;;;;;;;22.48;42.99;99894.41;5087376;28;20038;-22
2021/06/15 10:50:44;;;;;;;4.25;2.58;;;;;;;22.23;42.20;99885.59;5087391;28;20086;-23
2021/06/15 10:53:10;;;;;;;2.63;2.00;;;;;;;22.19;42.07;99890.00;5087076;28;20036;-22
2021/06/15 10:55:50;;;;;;;4.07;2.22;;;;;;;22.29;41.33;99873.53;5087188;28;20051;-23
2021/06/15 10:58:29;;;;;;;2.63;1.98;;;;;;;22.57;40.68;99874.34;5087166;28;20028;-23
2021/06/15 11:00:54;;;;;;;3.05;1.70;;;;;;;22.54;41.69;99860.59;5069261;28;20074;-23
2021/06/15 11:03:21;;;;;;;4.28;2.10;;;;;;;22.55;41.57;99870.31;5087102;28;20067;-23
2021/06/15 11:06:00;;;;;;;3.93;2.20;;;;;;;22.39;42.97;99873.38;5087332;28;20093;-23
2021/06/15 11:08:27;;;;;;;5.53;2.28;;;;;;;21.78;42.94;99863.59;5087287;28;20032;-22
2021/06/15 11:10:55;;;;;;;4.18;2.35;;;;;;;22.48;42.72;99862.59;5087435;28;20027;-23
2021/06/15 11:13:46;;;;;;;3.97;2.10;;;;;;;22.01;42.15;99868.06;5086970;28;20120;-22
2021/06/15 11:16:31;;;;;;;2.45;2.00;;;;;;;22.16;42.13;99866.19;5086551;28;20115;-23
2021/06/15 11:21:44;;;;;;;2.50;1.85;;;;;;;22.08;40.83;99863.03;5087006;28;20028;-23
2021/06/15 11:24:45;;;;;;;3.20;1.95;;;;;;;22.00;41.18;99850.16;5086997;28;20032;-23
2021/06/15 11:27:15;;;;;;;4.22;1.90;;;;;;;22.53;40.65;99859.75;5086980;28;20032;-23
2021/06/15 11:29:44;;;;;;;2.45;1.80;;;;;;;22.53;39.49;99848.88;5087231;28;20040;-23
2021/06/15 11:32:28;;;;;;;6.07;2.05;;;;;;;22.66;40.59;99842.63;5069790;28;20039;-23
2021/06/15 11:35:02;;;;;;;6.60;1.80;;;;;;;22.50;39.57;99840.56;5091269;28;20392;-23
2021/06/15 11:37:37;;;;;;;2.60;1.70;;;;;;;22.37;39.64;99836.72;5091405;28;20121;-23
2021/06/15 11:40:27;;;;;;;1.90;1.70;;;;;;;22.47;42.45;99847.38;5090568;28;20028;-23
2021/06/15 11:43:07;;;;;;;4.32;1.70;;;;;;;22.29;42.06;99840.94;5090678;28;20028;-23
2021/06/15 11:45:34;;;;;;;5.35;2.00;;;;;;;22.80;41.34;99839.91;5090854;28;20036;-23
2021/06/15 11:48:31;;;;;;;2.03;1.67;;;;;;;22.65;40.46;99826.63;5090764;28;20069;-23